Time;durP1;ratioP1;P1;durP2;ratioP2;P2;SDS_P1;SDS_P2;PMS_P1;PMS_P2;Temp;Humidity;BMP_temperature;BMP_pressure;BME280_temperature;BME280_humidity;BME280_pressure;Samples;Min_cycle;Max_cycle;Signal;HPM_P1;HPM_P2
2021/09/13 00:00:56;;;;;;;10.40;8.37;;;;;;;;;;5076960;28;20512;-85
2021/09/13 00:03:41;;;;;;;12.07;9.17;;;;;;;;;;5077881;28;20460;-85
2021/09/13 00:09:07;;;;;;;9.90;8.90;;;16.60;99.90;;;;;;5077940;28;20992;-86
2021/09/13 00:11:51;;;;;;;9.10;8.20;;;16.70;99.90;;;;;;5078472;28;20456;-86
2021/09/13 00:20:17;;;;;;;9.67;8.70;;;16.60;99.90;;;;;;5078410;28;20449;-86
2021/09/13 00:23:14;;;;;;;10.23;9.00;;;16.60;99.90;;;;;;5084449;28;20448;-86
2021/09/13 00:25:51;;;;;;;12.13;9.80;;;17.30;99.90;;;;;;5086480;28;20469;-86
2021/09/13 00:28:32;;;;;;;10.63;9.50;;;16.60;99.90;;;;;;5085050;28;20460;-86
2021/09/13 00:31:10;;;;;;;14.23;9.80;;;;;;;;;;5086513;28;20502;-86
2021/09/13 00:33:51;;;;;;;14.23;9.97;;;16.70;99.90;;;;;;5086498;28;20921;-86
2021/09/13 00:39:10;;;;;;;9.57;8.67;;;16.60;99.90;;;;;;5077685;28;20455;-85
2021/09/13 00:42:09;;;;;;;10.10;8.80;;;16.60;99.90;;;;;;5086659;28;20502;-86
2021/09/13 00:44:56;;;;;;;11.93;9.47;;;16.80;99.90;;;;;;5085032;28;20572;-86
2021/09/13 00:50:47;;;;;;;10.30;9.20;;;16.50;99.90;;;;;;5099191;28;20455;-85
2021/09/13 00:56:10;;;;;;;11.53;8.80;;;;;;;;;;5086730;28;20520;-86
2021/09/13 00:58:51;;;;;;;11.00;9.83;;;16.30;99.90;;;;;;5087117;28;20483;-86
2021/09/13 01:01:50;;;;;;;10.67;9.47;;;16.30;99.90;;;;;;5086446;28;20429;-86
2021/09/13 01:04:26;;;;;;;11.07;9.87;;;18.70;99.90;;;;;;5087443;28;20477;-86
2021/09/13 01:07:12;;;;;;;10.80;9.53;;;16.30;99.90;;;;;;5088923;28;20452;-86
2021/09/13 01:10:02;;;;;;;11.93;9.20;;;16.10;99.90;;;;;;5087283;28;20496;-86
2021/09/13 01:13:00;;;;;;;11.73;10.10;;;16.20;99.90;;;;;;5085122;28;20448;-86
2021/09/13 01:15:59;;;;;;;12.13;9.00;;;16.20;99.90;;;;;;5088086;28;20441;-86
2021/09/13 01:21:33;;;;;;;11.00;9.60;;;;;;;;;;5077830;28;20425;-86
2021/09/13 01:24:28;;;;;;;13.60;9.20;;;16.10;99.90;;;;;;5082848;28;20437;-86
2021/09/13 01:27:10;;;;;;;10.13;9.00;;;16.10;99.90;;;;;;5083968;28;20453;-86
2021/09/13 01:29:56;;;;;;;11.63;10.43;;;16.10;99.90;;;;;;5082996;28;20544;-86
2021/09/13 01:32:53;;;;;;;14.07;9.80;;;16.10;99.90;;;;;;5087853;28;20441;-86
2021/09/13 01:35:34;;;;;;;11.53;10.40;;;;;;;;;;5085806;28;20864;-86
2021/09/13 01:38:30;;;;;;;10.93;9.83;;;16.10;99.90;;;;;;5099374;28;20469;-86
2021/09/13 01:41:14;;;;;;;10.07;9.07;;;16.50;99.90;;;;;;5085795;28;20468;-86
2021/09/13 01:43:46;;;;;;;10.73;9.67;;;;;;;;;;5083849;28;20445;-86
2021/09/13 01:46:21;;;;;;;14.83;10.73;;;14.50;99.90;;;;;;5082377;28;20480;-86
2021/09/13 01:59:12;;;;;;;11.17;9.80;;;15.70;99.90;;;;;;5434462;22;20844;-85
2021/09/13 02:01:38;;;;;;;10.47;9.37;;;15.90;99.90;;;;;;5081882;28;20449;-86
2021/09/13 02:04:05;;;;;;;12.20;10.10;;;15.90;99.90;;;;;;5076776;28;20969;-86
2021/09/13 02:06:32;;;;;;;11.50;10.40;;;15.90;99.90;;;;;;5078728;28;20826;-86
2021/09/13 02:08:59;;;;;;;11.50;9.80;;;15.80;99.90;;;;;;5065998;28;20545;-84
2021/09/13 02:11:26;;;;;;;15.60;10.53;;;15.80;99.90;;;;;;5094977;23;20526;-82
2021/09/13 02:13:52;;;;;;;13.63;10.67;;;15.80;99.90;;;;;;5100040;28;20474;-82
2021/09/13 02:16:21;;;;;;;11.30;10.13;;;15.80;99.90;;;;;;5106212;28;20444;-80
2021/09/13 02:18:47;;;;;;;10.63;9.67;;;15.80;99.90;;;;;;5114475;28;20466;-80
2021/09/13 02:21:14;;;;;;;13.10;10.03;;;15.80;99.90;;;;;;5109233;28;20460;-80
2021/09/13 02:23:41;;;;;;;13.77;10.30;;;15.80;99.90;;;;;;5083578;28;20499;-81
2021/09/13 02:26:07;;;;;;;11.90;10.30;;;15.70;99.90;;;;;;5082387;28;20486;-80
2021/09/13 02:28:34;;;;;;;10.83;9.33;;;15.70;99.90;;;;;;5080636;28;20452;-82
2021/09/13 02:31:01;;;;;;;11.93;10.47;;;15.70;99.90;;;;;;5079604;28;20519;-82
2021/09/13 02:33:29;;;;;;;14.13;10.97;;;15.70;99.90;;;;;;5080626;28;20448;-82
2021/09/13 02:35:55;;;;;;;11.70;10.40;;;15.70;99.90;;;;;;5079681;28;20449;-82
2021/09/13 02:38:22;;;;;;;13.17;10.23;;;15.70;99.90;;;;;;5079482;28;20496;-82
2021/09/13 02:40:48;;;;;;;11.53;10.10;;;15.80;99.90;;;;;;5082747;28;20467;-80
2021/09/13 02:43:15;;;;;;;11.63;10.43;;;15.70;99.90;;;;;;5091034;28;20445;-82
2021/09/13 02:45:42;;;;;;;11.30;10.10;;;15.80;99.90;;;;;;5090682;28;20476;-81
2021/09/13 02:48:08;;;;;;;11.73;9.80;;;15.70;99.90;;;;;;5088158;28;20864;-83
2021/09/13 02:50:36;;;;;;;14.30;11.20;;;15.70;99.90;;;;;;5082769;28;20461;-82
2021/09/13 02:53:03;;;;;;;13.10;10.60;;;15.70;99.90;;;;;;5081217;28;20445;-82
2021/09/13 02:55:30;;;;;;;13.10;9.80;;;15.70;99.90;;;;;;5080356;28;20437;-82
2021/09/13 02:57:56;;;;;;;13.33;11.30;;;15.70;99.90;;;;;;5080318;28;20471;-83
2021/09/13 03:00:23;;;;;;;10.13;9.17;;;15.70;99.90;;;;;;5093630;28;20445;-81
2021/09/13 03:02:50;;;;;;;14.87;10.90;;;15.70;99.90;;;;;;5093711;28;20461;-82
2021/09/13 03:05:16;;;;;;;12.70;10.63;;;15.60;99.90;;;;;;5093861;28;20488;-82
2021/09/13 03:07:44;;;;;;;11.80;10.60;;;15.60;99.90;;;;;;5087979;28;20445;-82
2021/09/13 03:10:12;;;;;;;11.10;10.03;;;15.60;99.90;;;;;;5097486;28;20452;-83
2021/09/13 03:12:39;;;;;;;13.27;10.87;;;15.60;99.90;;;;;;5093997;28;20473;-81
2021/09/13 03:15:08;;;;;;;19.00;10.87;;;15.60;99.90;;;;;;5095012;28;20421;-82
2021/09/13 03:17:35;;;;;;;17.57;10.50;;;15.60;99.90;;;;;;5095105;28;20924;-81
2021/09/13 03:20:02;;;;;;;13.43;11.00;;;15.40;99.90;;;;;;5094047;28;20441;-81
2021/09/13 03:22:30;;;;;;;13.70;11.00;;;15.40;99.90;;;;;;5093204;28;20462;-82
2021/09/13 03:24:58;;;;;;;10.97;9.77;;;15.40;99.90;;;;;;5095956;28;20492;-82
2021/09/13 03:27:24;;;;;;;14.90;9.90;;;15.40;99.90;;;;;;5091737;28;20442;-81
2021/09/13 03:29:51;;;;;;;13.73;10.07;;;15.40;99.90;;;;;;5088288;28;20445;-82
2021/09/13 03:32:18;;;;;;;13.93;10.47;;;15.40;99.90;;;;;;5081182;28;20470;-82
2021/09/13 03:34:44;;;;;;;13.17;11.77;;;15.40;99.90;;;;;;5090349;28;20817;-81
2021/09/13 03:37:11;;;;;;;11.30;9.60;;;15.30;99.90;;;;;;5089447;28;20437;-82
2021/09/13 03:39:38;;;;;;;12.47;10.63;;;15.30;99.90;;;;;;5086677;28;20441;-83
2021/09/13 03:42:06;;;;;;;16.90;11.33;;;15.30;99.90;;;;;;5081194;28;20466;-82
2021/09/13 03:44:33;;;;;;;11.83;9.80;;;15.30;99.90;;;;;;5079181;28;20473;-83
2021/09/13 03:46:59;;;;;;;13.00;10.50;;;15.30;99.90;;;;;;5079327;28;20508;-83
2021/09/13 03:49:26;;;;;;;12.17;10.97;;;15.30;99.90;;;;;;5079241;28;20459;-83
2021/09/13 03:51:53;;;;;;;13.90;12.40;;;15.30;99.90;;;;;;5080296;28;20501;-83
2021/09/13 03:54:19;;;;;;;12.90;11.60;;;15.20;99.90;;;;;;5078508;28;20456;-83
2021/09/13 03:56:46;;;;;;;12.90;10.40;;;15.20;99.90;;;;;;5077654;28;20491;-83
2021/09/13 03:59:14;;;;;;;14.23;10.90;;;15.20;99.90;;;;;;5079751;28;20805;-82
2021/09/13 04:01:41;;;;;;;13.80;12.10;;;15.30;99.90;;;;;;5089104;28;20487;-81
2021/09/13 04:04:08;;;;;;;14.97;10.20;;;15.10;99.90;;;;;;5094856;28;20446;-83
2021/09/13 04:06:42;;;;;;;12.63;11.10;;;15.10;99.90;;;;;;5085096;28;20503;-82
2021/09/13 04:11:55;;;;;;;14.30;9.90;;;15.10;99.90;;;;;;5085978;28;20467;-80
2021/09/13 04:14:23;;;;;;;12.80;11.00;;;15.10;99.90;;;;;;5092017;28;20416;-81
2021/09/13 04:16:50;;;;;;;13.17;11.73;;;15.10;99.90;;;;;;5096107;28;20434;-80
2021/09/13 04:19:16;;;;;;;12.67;11.37;;;15.10;99.90;;;;;;5093560;28;20478;-81
2021/09/13 04:21:43;;;;;;;13.77;11.13;;;15.10;99.90;;;;;;5096988;28;20487;-82
2021/09/13 04:24:10;;;;;;;13.27;10.00;;;15.10;99.90;;;;;;5088321;28;20449;-81
2021/09/13 04:26:37;;;;;;;14.60;10.70;;;15.00;99.90;;;;;;5082347;28;20473;-82
2021/09/13 04:29:04;;;;;;;11.90;10.17;;;15.00;99.90;;;;;;5084515;28;20514;-82
2021/09/13 04:31:32;;;;;;;11.73;10.53;;;15.00;99.90;;;;;;5079382;28;21023;-83
2021/09/13 04:33:59;;;;;;;11.67;9.87;;;15.00;99.90;;;;;;5078228;28;20453;-82
2021/09/13 04:36:25;;;;;;;11.40;10.07;;;15.00;99.90;;;;;;5078291;28;20433;-82
2021/09/13 04:38:52;;;;;;;14.87;11.43;;;15.00;99.90;;;;;;5078502;28;20473;-82
2021/09/13 04:41:19;;;;;;;11.73;8.90;;;15.00;99.90;;;;;;5079003;28;20477;-83
2021/09/13 04:43:46;;;;;;;10.63;8.60;;;15.10;99.90;;;;;;5079056;28;20766;-82
2021/09/13 04:46:12;;;;;;;9.90;8.47;;;15.10;99.90;;;;;;5078338;28;20481;-83
2021/09/13 04:48:40;;;;;;;9.87;8.97;;;15.00;99.90;;;;;;5078825;28;20445;-83
2021/09/13 04:51:07;;;;;;;9.03;8.13;;;15.10;99.90;;;;;;5078318;28;20496;-82
2021/09/13 04:53:34;;;;;;;9.13;8.20;;;15.10;99.90;;;;;;5079782;28;20449;-83
2021/09/13 04:56:00;;;;;;;8.27;7.43;;;15.10;99.90;;;;;;5077653;28;20858;-83
2021/09/13 04:58:27;;;;;;;14.63;7.10;;;15.10;99.90;;;;;;5078292;28;20445;-83
2021/09/13 05:00:53;;;;;;;11.50;7.13;;;14.90;99.90;;;;;;5077044;28;20446;-82
2021/09/13 05:03:20;;;;;;;12.57;7.50;;;15.10;99.90;;;;;;5077655;28;20465;-83
2021/09/13 05:05:48;;;;;;;7.73;6.40;;;15.10;99.90;;;;;;5077819;28;20473;-83
2021/09/13 05:08:15;;;;;;;8.47;6.80;;;15.20;99.90;;;;;;5078724;28;20472;-82
2021/09/13 05:10:41;;;;;;;7.53;6.80;;;15.30;99.90;;;;;;5081752;28;20857;-82
2021/09/13 05:13:08;;;;;;;8.73;6.60;;;15.30;99.90;;;;;;5084309;28;20441;-82
2021/09/13 05:15:34;;;;;;;8.17;6.47;;;15.30;99.90;;;;;;5091973;28;20445;-82
2021/09/13 05:18:01;;;;;;;5.70;5.20;;;15.40;99.90;;;;;;5093920;28;20441;-82
2021/09/13 05:20:28;;;;;;;6.63;6.10;;;15.40;99.90;;;;;;5089093;28;20441;-83
2021/09/13 05:22:55;;;;;;;6.60;6.00;;;15.50;99.90;;;;;;5082183;28;20514;-83
2021/09/13 05:25:22;;;;;;;9.57;4.90;;;15.40;99.90;;;;;;5085643;28;20441;-81
2021/09/13 05:27:49;;;;;;;5.53;5.03;;;15.40;99.90;;;;;;5083241;28;20451;-83
2021/09/13 05:30:16;;;;;;;9.60;6.10;;;15.40;99.90;;;;;;5081667;28;20477;-83
2021/09/13 05:32:42;;;;;;;7.73;6.17;;;15.40;99.90;;;;;;5080594;28;20550;-83
2021/09/13 05:35:10;;;;;;;7.87;6.17;;;15.40;99.90;;;;;;5080732;28;20476;-83
2021/09/13 05:37:36;;;;;;;9.13;5.83;;;15.40;99.90;;;;;;5082563;28;20449;-83
2021/09/13 05:40:06;;;;;;;8.33;5.37;;;15.50;99.90;;;;;;5081070;28;20449;-83
2021/09/13 05:42:32;;;;;;;9.77;5.77;;;15.40;99.90;;;;;;5081236;28;21049;-81
2021/09/13 05:44:59;;;;;;;7.67;6.17;;;15.40;99.90;;;;;;5080526;28;20445;-81
2021/09/13 05:47:26;;;;;;;9.10;6.00;;;15.40;99.90;;;;;;5080775;28;20485;-82
2021/09/13 05:49:53;;;;;;;8.67;6.80;;;15.40;99.90;;;;;;5080819;28;20863;-82
2021/09/13 05:52:19;;;;;;;8.30;6.50;;;15.50;99.90;;;;;;5084368;28;20465;-83
2021/09/13 05:54:46;;;;;;;7.10;5.97;;;15.50;99.90;;;;;;5082875;28;20472;-81
2021/09/13 05:57:14;;;;;;;6.97;6.17;;;15.50;99.90;;;;;;5093828;28;20445;-81
2021/09/13 05:59:40;;;;;;;8.70;5.83;;;15.50;99.90;;;;;;5085144;28;20448;-82
2021/09/13 06:02:07;;;;;;;11.13;6.07;;;15.50;99.90;;;;;;5081094;28;20861;-82
2021/09/13 06:04:34;;;;;;;7.60;5.87;;;15.60;99.90;;;;;;5083435;28;20449;-82
2021/09/13 06:07:01;;;;;;;9.80;6.60;;;15.60;99.90;;;;;;5082020;28;20477;-82
2021/09/13 06:09:27;;;;;;;8.30;5.50;;;15.60;99.90;;;;;;5081420;28;20489;-82
2021/09/13 06:11:54;;;;;;;5.60;5.00;;;15.60;99.90;;;;;;5080544;28;20473;-81
2021/09/13 06:14:22;;;;;;;8.10;5.57;;;15.40;99.90;;;;;;5080801;28;20442;-82
2021/09/13 06:16:48;;;;;;;7.83;5.20;;;15.70;99.90;;;;;;5080674;28;20480;-82
2021/09/13 06:19:15;;;;;;;12.20;6.10;;;15.70;99.90;;;;;;5079812;28;20453;-82
2021/09/13 06:21:41;;;;;;;6.43;4.90;;;15.80;99.90;;;;;;5080268;28;20519;-82
2021/09/13 06:24:08;;;;;;;6.77;5.23;;;15.80;99.90;;;;;;5080875;28;20445;-82
2021/09/13 06:26:35;;;;;;;12.27;11.00;;;15.90;99.90;;;;;;5080588;28;20530;-82
2021/09/13 06:29:01;;;;;;;8.80;6.30;;;15.90;99.90;;;;;;5081557;28;20503;-82
2021/09/13 06:31:29;;;;;;;6.07;5.67;;;15.90;99.90;;;;;;5080696;28;20461;-82
2021/09/13 06:33:56;;;;;;;7.47;5.40;;;15.90;99.90;;;;;;5094487;28;20433;-79
2021/09/13 06:36:23;;;;;;;6.07;5.47;;;15.90;99.90;;;;;;5098551;28;20479;-81
2021/09/13 06:38:49;;;;;;;7.30;6.50;;;15.90;99.90;;;;;;5081525;28;20453;-82
2021/09/13 06:41:16;;;;;;;5.70;5.20;;;16.00;99.90;;;;;;5081829;28;20462;-82
2021/09/13 06:43:43;;;;;;;6.07;5.00;;;16.00;99.90;;;;;;5078779;28;20487;-81
2021/09/13 06:46:12;;;;;;;5.17;4.43;;;16.10;99.90;;;;;;5078883;28;20538;-81
2021/09/13 06:48:41;;;;;;;10.73;5.70;;;16.10;99.90;;;;;;5079948;28;20457;-81
2021/09/13 06:51:08;;;;;;;8.60;4.97;;;16.20;99.90;;;;;;5079938;28;20465;-81
2021/09/13 06:53:35;;;;;;;6.20;4.07;;;16.20;99.90;;;;;;5078352;28;20449;-82
2021/09/13 06:56:04;;;;;;;6.27;4.50;;;16.30;99.90;;;;;;5078942;28;20998;-83
2021/09/13 06:58:30;;;;;;;5.80;4.00;;;16.30;99.90;;;;;;5078892;28;20449;-83
2021/09/13 07:00:57;;;;;;;5.10;4.60;;;16.30;99.90;;;;;;5078634;28;20501;-83
2021/09/13 07:03:25;;;;;;;8.93;4.63;;;16.40;99.90;;;;;;5081302;28;20449;-83
2021/09/13 07:05:53;;;;;;;6.00;4.27;;;15.50;99.90;;;;;;5080672;28;20446;-83
2021/09/13 07:08:19;;;;;;;5.40;4.33;;;16.40;99.90;;;;;;5079517;28;20870;-83
2021/09/13 07:10:47;;;;;;;9.93;5.60;;;16.50;99.90;;;;;;5079902;28;20450;-83
2021/09/13 07:13:14;;;;;;;4.43;3.60;;;16.50;99.90;;;;;;5080393;28;20528;-83
2021/09/13 07:15:41;;;;;;;6.80;3.73;;;16.60;99.90;;;;;;5078990;28;20507;-83
2021/09/13 07:18:07;;;;;;;3.70;3.40;;;16.60;99.90;;;;;;5078850;28;20452;-83
2021/09/13 07:20:34;;;;;;;6.30;4.37;;;16.70;99.90;;;;;;5078617;28;20477;-83
2021/09/13 07:23:02;;;;;;;4.73;3.67;;;16.80;99.90;;;;;;5078993;28;20469;-83
2021/09/13 07:25:29;;;;;;;6.80;3.60;;;16.80;99.90;;;;;;5080383;28;20446;-83
2021/09/13 07:27:55;;;;;;;3.57;3.27;;;16.90;99.90;;;;;;5084740;28;20490;-83
2021/09/13 07:30:22;;;;;;;4.30;2.87;;;16.90;99.90;;;;;;5093797;28;20491;-82
2021/09/13 07:32:49;;;;;;;3.60;2.93;;;17.00;99.90;;;;;;5092394;28;20492;-83
2021/09/13 07:35:15;;;;;;;2.93;2.73;;;17.00;99.90;;;;;;5087516;28;20520;-82
2021/09/13 07:37:42;;;;;;;4.93;3.23;;;17.00;99.90;;;;;;5085975;28;20437;-82
2021/09/13 07:40:11;;;;;;;5.33;3.30;;;17.20;99.90;;;;;;5086529;28;20490;-84
2021/09/13 07:42:38;;;;;;;4.93;4.20;;;17.10;99.90;;;;;;5085412;28;20465;-84
2021/09/13 07:45:06;;;;;;;8.83;3.47;;;17.20;99.90;;;;;;5082933;28;20441;-81
2021/09/13 07:47:35;;;;;;;5.97;4.20;;;17.20;99.90;;;;;;5084838;28;20496;-84
2021/09/13 07:50:02;;;;;;;4.63;3.17;;;17.20;99.90;;;;;;5083278;28;20459;-82
2021/09/13 07:52:28;;;;;;;5.00;3.47;;;17.20;99.90;;;;;;5084104;28;20912;-82
2021/09/13 07:54:55;;;;;;;5.17;3.37;;;17.20;99.90;;;;;;5082801;28;20503;-83
2021/09/13 07:57:24;;;;;;;6.73;3.47;;;17.30;99.90;;;;;;5083060;28;20437;-82
2021/09/13 07:59:51;;;;;;;8.73;4.27;;;17.30;99.90;;;;;;5083813;28;20531;-82
2021/09/13 08:02:17;;;;;;;4.20;3.67;;;17.40;99.90;;;;;;5085031;28;20503;-83
2021/09/13 08:04:45;;;;;;;7.77;5.30;;;17.50;99.90;;;;;;5084165;28;20445;-82
2021/09/13 08:07:11;;;;;;;6.07;4.40;;;17.50;99.90;;;;;;5083977;28;20481;-81
2021/09/13 08:09:38;;;;;;;7.20;3.27;;;17.60;99.90;;;;;;5080186;28;20434;-82
2021/09/13 08:12:05;;;;;;;6.53;3.53;;;17.60;99.90;;;;;;5115823;22;20497;-86
2021/09/13 08:14:34;;;;;;;5.30;3.43;;;17.60;99.90;;;;;;5078243;28;20445;-86
2021/09/13 08:17:00;;;;;;;3.40;2.93;;;17.60;99.90;;;;;;5082774;28;20445;-86
2021/09/13 08:19:27;;;;;;;3.93;3.20;;;17.70;99.90;;;;;;5095012;28;20421;-84
2021/09/13 08:21:53;;;;;;;6.60;2.83;;;17.70;99.90;;;;;;5090968;28;20462;-84
2021/09/13 08:24:20;;;;;;;2.80;2.60;;;17.80;99.90;;;;;;5071566;28;20805;-87
2021/09/13 08:26:47;;;;;;;4.47;2.60;;;17.80;99.90;;;;;;5060839;28;20478;-86
2021/09/13 08:29:15;;;;;;;3.43;2.90;;;17.90;99.90;;;;;;5061839;28;20450;-87
2021/09/13 08:31:43;;;;;;;4.30;3.00;;;17.90;99.90;;;;;;5059886;28;20466;-86
2021/09/13 08:34:11;;;;;;;3.50;2.10;;;17.90;99.90;;;;;;5059092;28;20441;-86
2021/09/13 08:36:38;;;;;;;6.97;3.53;;;17.90;99.90;;;;;;5056900;28;20442;-87
2021/09/13 08:39:05;;;;;;;5.97;3.07;;;17.90;99.90;;;;;;5062738;28;20438;-87
2021/09/13 08:41:33;;;;;;;3.07;2.87;;;18.00;99.90;;;;;;5072983;28;20484;-85
2021/09/13 08:44:00;;;;;;;2.53;2.33;;;18.10;99.90;;;;;;5078939;28;20489;-86
2021/09/13 08:46:37;;;;;;;4.00;3.00;;;18.20;99.90;;;;;;5079898;28;20480;-87
2021/09/13 08:49:07;;;;;;;4.77;2.90;;;18.20;99.90;;;;;;5073042;28;20430;-87
2021/09/13 08:51:33;;;;;;;6.00;2.80;;;18.20;99.90;;;;;;5063412;28;20569;-87
2021/09/13 08:54:05;;;;;;;4.97;3.93;;;18.20;99.90;;;;;;5062238;28;20454;-87
2021/09/13 08:56:38;;;;;;;3.00;2.80;;;18.00;99.90;;;;;;5069618;28;20480;-87
2021/09/13 08:59:09;;;;;;;4.10;3.67;;;18.30;99.90;;;;;;5063903;28;20906;-87
2021/09/13 09:01:36;;;;;;;3.63;3.17;;;18.40;99.90;;;;;;5063070;28;21040;-86
2021/09/13 09:04:07;;;;;;;2.97;2.67;;;18.40;99.90;;;;;;5062654;28;20442;-87
2021/09/13 09:06:35;;;;;;;5.03;2.30;;;18.50;99.90;;;;;;5063398;28;20422;-87
2021/09/13 09:09:05;;;;;;;2.77;2.57;;;18.50;99.90;;;;;;5061209;28;20943;-87
2021/09/13 09:11:56;;;;;;;5.47;2.23;;;18.50;99.90;;;;;;5060343;28;20478;-86
2021/09/13 09:14:33;;;;;;;2.43;2.20;;;18.50;99.90;;;;;;5060441;28;20446;-86
2021/09/13 09:17:01;;;;;;;2.60;2.40;;;18.50;99.90;;;;;;5060652;28;20418;-86
2021/09/13 09:19:29;;;;;;;2.87;1.90;;;18.60;99.90;;;;;;5062174;28;20860;-86
2021/09/13 09:21:57;;;;;;;2.27;2.10;;;18.60;99.90;;;;;;5080613;28;20438;-85
2021/09/13 09:24:25;;;;;;;2.47;2.10;;;18.60;99.90;;;;;;5060918;28;20454;-86
2021/09/13 09:27:03;;;;;;;2.30;2.10;;;18.60;99.90;;;;;;5060576;28;20528;-86
2021/09/13 09:29:33;;;;;;;3.33;2.03;;;18.60;99.90;;;;;;5060431;28;20957;-86
2021/09/13 09:32:00;;;;;;;3.10;2.57;;;18.70;99.90;;;;;;5063155;28;20473;-86
2021/09/13 09:34:31;;;;;;;4.03;2.77;;;18.70;99.90;;;;;;5060711;28;20458;-87
2021/09/13 09:37:11;;;;;;;3.67;2.43;;;18.70;99.90;;;;;;5059517;28;20976;-87
2021/09/13 09:39:40;;;;;;;3.73;2.63;;;18.80;99.90;;;;;;5059642;28;20513;-87
2021/09/13 09:42:09;;;;;;;3.70;2.43;;;18.90;99.90;;;;;;5059290;28;20524;-86
2021/09/13 09:44:36;;;;;;;2.40;2.20;;;18.90;99.90;;;;;;5062116;28;20517;-86
2021/09/13 09:47:06;;;;;;;7.80;2.40;;;18.90;99.90;;;;;;5059691;28;20482;-86
2021/09/13 09:49:51;;;;;;;2.63;2.33;;;18.90;99.90;;;;;;5059135;28;20945;-86
2021/09/13 09:52:32;;;;;;;5.40;2.70;;;18.90;99.90;;;;;;5060722;28;20470;-86
2021/09/13 09:55:10;;;;;;;2.53;2.20;;;19.00;99.90;;;;;;5057702;28;20434;-87
2021/09/13 09:57:37;;;;;;;2.80;2.60;;;18.90;99.90;;;;;;5060082;28;20441;-87
2021/09/13 10:00:19;;;;;;;4.47;3.17;;;19.00;99.90;;;;;;5062587;28;20450;-87
2021/09/13 10:02:46;;;;;;;3.30;2.97;;;19.10;99.90;;;;;;5060532;28;20821;-86
2021/09/13 10:05:17;;;;;;;3.97;2.97;;;19.10;99.90;;;;;;5059678;28;21016;-87
2021/09/13 10:07:45;;;;;;;2.67;2.47;;;19.20;99.90;;;;;;5060444;28;20485;-86
2021/09/13 10:10:12;;;;;;;3.13;2.93;;;19.20;99.90;;;;;;5061848;28;20505;-87
2021/09/13 10:12:40;;;;;;;2.77;2.47;;;19.30;99.90;;;;;;5064602;28;20473;-87
2021/09/13 10:15:07;;;;;;;5.40;3.10;;;19.30;99.90;;;;;;5066921;28;20438;-87
2021/09/13 10:17:35;;;;;;;3.50;2.67;;;19.40;99.90;;;;;;5069508;28;20437;-86
2021/09/13 10:20:03;;;;;;;3.63;2.70;;;19.30;99.90;;;;;;5071349;28;20501;-86
2021/09/13 10:22:31;;;;;;;3.67;3.37;;;19.30;99.90;;;;;;5065353;28;20470;-87
2021/09/13 10:24:58;;;;;;;3.43;2.73;;;19.40;99.90;;;;;;5061802;28;20446;-87
2021/09/13 10:27:25;;;;;;;3.10;2.90;;;19.30;99.90;;;;;;5061765;28;20496;-87
2021/09/13 10:30:10;;;;;;;3.73;3.43;;;19.30;99.90;;;;;;5060654;28;20460;-87
2021/09/13 10:32:37;;;;;;;7.77;3.20;;;19.20;99.90;;;;;;5059394;28;20485;-87
2021/09/13 10:35:06;;;;;;;5.83;2.87;;;19.00;99.90;;;;;;5060067;28;20454;-87
2021/09/13 10:37:44;;;;;;;2.90;2.70;;;19.00;99.90;;;;;;5060607;28;20446;-87
2021/09/13 10:40:21;;;;;;;7.83;3.30;;;18.90;99.90;;;;;;5063852;28;20777;-87
2021/09/13 10:42:49;;;;;;;3.73;3.43;;;19.00;99.90;;;;;;5074358;28;20518;-86
2021/09/13 10:45:22;;;;;;;3.00;2.80;;;19.10;99.90;;;;;;5076174;28;20464;-86
2021/09/13 10:47:51;;;;;;;4.90;3.20;;;19.10;99.90;;;;;;5076064;28;20463;-86
2021/09/13 10:50:24;;;;;;;3.07;2.80;;;19.20;99.90;;;;;;5075920;28;20458;-86
2021/09/13 10:52:53;;;;;;;3.40;3.10;;;19.20;99.90;;;;;;5071387;28;20493;-86
2021/09/13 10:55:31;;;;;;;4.63;3.13;;;19.30;99.90;;;;;;5063246;28;20853;-87
2021/09/13 10:58:09;;;;;;;3.17;2.97;;;19.30;99.90;;;;;;5063890;28;20430;-88
2021/09/13 11:01:02;;;;;;;5.87;3.10;;;19.20;99.90;;;;;;5063409;28;20438;-86
2021/09/13 11:03:34;;;;;;;3.50;2.63;;;19.20;99.90;;;;;;5062901;28;20450;-86
2021/09/13 11:06:05;;;;;;;7.60;3.03;;;19.10;99.90;;;;;;5062402;28;20446;-86
2021/09/13 11:08:36;;;;;;;4.93;3.00;;;19.10;99.90;;;;;;5065265;28;20486;-87
2021/09/13 11:11:08;;;;;;;4.70;3.43;;;19.00;99.90;;;;;;5062737;28;20454;-87
2021/09/13 11:13:34;;;;;;;3.07;2.80;;;19.00;99.90;;;;;;5062028;28;20794;-87
2021/09/13 11:16:01;;;;;;;3.60;2.97;;;19.10;99.90;;;;;;5061153;28;20445;-87
2021/09/13 11:18:31;;;;;;;4.40;3.13;;;19.10;99.90;;;;;;5061545;28;20441;-87
2021/09/13 11:21:13;;;;;;;4.83;2.80;;;19.00;99.90;;;;;;5060803;28;20430;-87
2021/09/13 11:23:41;;;;;;;5.30;3.03;;;19.10;99.90;;;;;;5061664;28;20427;-88
2021/09/13 11:26:08;;;;;;;6.00;2.23;;;18.90;99.90;;;;;;5059910;28;20930;-86
2021/09/13 11:28:53;;;;;;;4.90;2.90;;;18.90;99.90;;;;;;5060572;28;20652;-87
2021/09/13 11:31:33;;;;;;;3.60;2.70;;;18.90;99.90;;;;;;5063421;28;20458;-87
2021/09/13 11:34:01;;;;;;;3.60;2.83;;;18.90;99.90;;;;;;5062372;28;20415;-87
2021/09/13 11:36:30;;;;;;;5.70;2.97;;;18.90;99.90;;;;;;5059975;28;20450;-87
2021/09/13 11:39:05;;;;;;;3.00;2.80;;;19.20;99.90;;;;;;5059978;28;20474;-86
2021/09/13 11:41:32;;;;;;;4.43;2.80;;;19.10;99.90;;;;;;5059620;28;20519;-86
2021/09/13 11:44:06;;;;;;;3.13;2.83;;;19.20;99.90;;;;;;5058777;28;20995;-86
2021/09/13 11:46:50;;;;;;;5.60;3.00;;;19.00;99.90;;;;;;5063586;28;20466;-86
2021/09/13 11:49:18;;;;;;;5.40;3.30;;;19.10;99.90;;;;;;5075803;28;20470;-85
2021/09/13 11:52:03;;;;;;;3.00;2.80;;;19.10;99.90;;;;;;5076668;28;20488;-86
2021/09/13 11:54:34;;;;;;;5.50;4.67;;;19.10;99.90;;;;;;5075372;28;20481;-86
2021/09/13 11:57:01;;;;;;;3.80;3.47;;;19.00;99.90;;;;;;5064565;28;20473;-86
2021/09/13 11:59:27;;;;;;;4.73;3.27;;;19.10;99.90;;;;;;5065187;28;20438;-87
2021/09/13 12:01:59;;;;;;;3.40;3.10;;;19.20;99.90;;;;;;5059882;28;20526;-87
2021/09/13 12:04:27;;;;;;;3.70;3.40;;;19.10;99.90;;;;;;5060926;28;20445;-86
2021/09/13 12:07:10;;;;;;;2.80;2.60;;;19.30;99.90;;;;;;5068786;28;20446;-87
2021/09/13 12:09:41;;;;;;;2.73;2.50;;;19.30;99.90;;;;;;5075453;28;20474;-87
2021/09/13 12:12:08;;;;;;;4.50;3.60;;;19.30;99.90;;;;;;5077162;28;20462;-86
2021/09/13 12:14:38;;;;;;;3.60;3.30;;;19.30;99.90;;;;;;5069153;28;20457;-86
2021/09/13 12:17:10;;;;;;;4.83;3.30;;;19.40;99.90;;;;;;5060824;28;20434;-86
2021/09/13 12:19:37;;;;;;;3.97;3.53;;;19.30;99.90;;;;;;5059282;28;20981;-86
2021/09/13 12:22:05;;;;;;;3.50;3.20;;;19.40;99.90;;;;;;5061156;28;20523;-88
2021/09/13 12:24:32;;;;;;;3.83;2.90;;;19.40;99.90;;;;;;5062030;28;20472;-87
2021/09/13 12:27:13;;;;;;;4.97;4.47;;;19.40;99.90;;;;;;5061632;28;20450;-87
2021/09/13 12:29:51;;;;;;;3.33;3.10;;;19.40;99.90;;;;;;5065511;28;20462;-86
2021/09/13 12:32:25;;;;;;;4.33;3.93;;;19.40;99.90;;;;;;5064197;28;20462;-87
2021/09/13 12:34:59;;;;;;;5.17;3.60;;;19.40;99.90;;;;;;5064494;28;20476;-86
2021/09/13 12:37:28;;;;;;;5.03;3.20;;;19.30;99.90;;;;;;5065275;28;20430;-86
2021/09/13 12:40:11;;;;;;;4.30;3.43;;;19.30;99.90;;;;;;5069531;28;20444;-87
2021/09/13 12:42:53;;;;;;;2.80;2.60;;;19.30;99.90;;;;;;5068024;28;20492;-86
2021/09/13 12:45:21;;;;;;;3.30;3.00;;;19.40;99.90;;;;;;5066584;28;20430;-87
2021/09/13 12:47:56;;;;;;;4.17;3.10;;;19.50;99.90;;;;;;5063671;28;20512;-87
2021/09/13 12:50:31;;;;;;;4.20;2.90;;;19.40;99.90;;;;;;5064883;28;20446;-87
2021/09/13 12:52:59;;;;;;;2.77;2.57;;;19.50;99.90;;;;;;5062202;28;20524;-86
2021/09/13 12:55:26;;;;;;;2.83;2.63;;;19.60;99.90;;;;;;5069058;28;20499;-86
2021/09/13 12:57:54;;;;;;;2.70;2.50;;;19.60;99.90;;;;;;5064565;28;20448;-87
2021/09/13 13:00:21;;;;;;;2.80;2.60;;;19.50;99.90;;;;;;5069552;28;20450;-86
2021/09/13 13:03:11;;;;;;;2.40;2.20;;;19.40;99.90;;;;;;5062179;28;20466;-86
2021/09/13 13:05:41;;;;;;;3.30;2.33;;;19.40;99.90;;;;;;5067516;28;20445;-86
2021/09/13 13:08:07;;;;;;;2.73;2.53;;;19.30;99.90;;;;;;5062695;28;20528;-87
2021/09/13 13:10:34;;;;;;;4.00;2.93;;;19.10;99.90;;;;;;5063181;28;20507;-86
2021/09/13 13:13:04;;;;;;;3.17;2.97;;;19.10;99.90;;;;;;5065079;28;20539;-86
2021/09/13 13:15:31;;;;;;;4.20;3.57;;;19.20;99.90;;;;;;5062439;28;20450;-87
2021/09/13 13:17:58;;;;;;;3.30;3.10;;;19.10;99.90;;;;;;5064381;28;20958;-86
2021/09/13 13:20:27;;;;;;;3.97;3.30;;;19.20;99.90;;;;;;5070489;28;20453;-86
2021/09/13 13:22:54;;;;;;;3.40;3.07;;;19.20;99.90;;;;;;5076321;28;20472;-85
2021/09/13 13:25:21;;;;;;;6.23;3.10;;;19.10;99.90;;;;;;5076875;28;20441;-85
2021/09/13 13:27:48;;;;;;;2.50;2.30;;;19.00;99.90;;;;;;5077238;28;20456;-85
2021/09/13 13:30:17;;;;;;;2.57;2.40;;;19.10;99.90;;;;;;5078968;28;20457;-87
2021/09/13 13:32:44;;;;;;;3.10;2.80;;;19.20;99.90;;;;;;5079874;28;20482;-87